createdAt,value
2018-08-20T00:01:02.967Z,18.40
2018-08-20T00:03:36.417Z,18.50
2018-08-20T00:06:04.236Z,18.40
2018-08-20T00:08:32.060Z,18.30
2018-08-20T00:10:59.965Z,18.50
2018-08-20T00:13:27.813Z,18.50
2018-08-20T00:15:55.682Z,18.40
2018-08-20T00:18:29.257Z,18.40
2018-08-20T00:20:57.128Z,18.30
2018-08-20T00:23:25.217Z,18.20
2018-08-20T00:25:56.758Z,18.10
2018-08-20T00:28:24.927Z,18.10
2018-08-20T00:30:52.766Z,18.10
2018-08-20T00:33:20.608Z,18.00
2018-08-20T00:35:48.431Z,17.90
2018-08-20T00:38:16.379Z,17.90
2018-08-20T00:40:44.664Z,17.90
2018-08-20T00:43:12.739Z,17.80
2018-08-20T00:45:40.787Z,17.70
2018-08-20T00:48:08.655Z,17.80
2018-08-20T00:50:36.432Z,17.70
2018-08-20T00:53:04.395Z,17.70
2018-08-20T00:55:32.179Z,17.60
2018-08-20T00:58:00.137Z,17.60
2018-08-20T01:00:28.023Z,17.50
2018-08-20T01:02:55.908Z,17.50
2018-08-20T01:05:23.809Z,17.50
2018-08-20T01:07:51.592Z,17.40
2018-08-20T01:10:19.481Z,17.40
2018-08-20T01:12:47.269Z,17.30
2018-08-20T01:15:15.072Z,17.30
2018-08-20T01:17:42.895Z,17.30
2018-08-20T01:20:10.693Z,17.20
2018-08-20T01:22:38.540Z,17.20
2018-08-20T01:25:06.506Z,17.20
2018-08-20T01:27:34.303Z,17.20
2018-08-20T01:30:02.096Z,17.10
2018-08-20T01:32:30.011Z,17.10
2018-08-20T01:35:29.913Z,17.10
2018-08-20T01:37:57.711Z,17.00
2018-08-20T01:40:25.600Z,17.00
2018-08-20T01:42:54.306Z,17.00
2018-08-20T01:45:22.083Z,17.00
2018-08-20T01:47:49.956Z,16.90
2018-08-20T01:50:17.760Z,16.80
2018-08-20T01:52:45.608Z,16.80
2018-08-20T01:55:13.448Z,16.80
2018-08-20T01:57:41.312Z,16.70
2018-08-20T02:00:09.131Z,16.60
2018-08-20T02:02:36.983Z,16.60
2018-08-20T02:05:06.115Z,16.60
2018-08-20T02:07:34.055Z,16.60
2018-08-20T02:10:01.993Z,16.60
2018-08-20T02:12:29.827Z,16.60
2018-08-20T02:14:57.672Z,16.50
2018-08-20T02:17:25.411Z,16.50
2018-08-20T02:19:53.268Z,16.40
2018-08-20T02:22:21.084Z,16.40
2018-08-20T02:24:48.912Z,16.30
2018-08-20T02:27:16.873Z,16.20
2018-08-20T02:29:44.633Z,16.10
2018-08-20T02:32:12.488Z,16.10
2018-08-20T02:34:40.343Z,16.10
2018-08-20T02:37:08.163Z,16.00
2018-08-20T02:39:35.991Z,15.90
2018-08-20T02:42:03.990Z,15.90
2018-08-20T02:44:31.884Z,15.80
2018-08-20T02:46:59.712Z,15.90
2018-08-20T02:49:27.476Z,16.10
2018-08-20T02:51:55.246Z,16.00
2018-08-20T02:54:23.111Z,16.00
2018-08-20T02:56:50.914Z,16.00
2018-08-20T02:59:18.789Z,16.00
2018-08-20T03:01:46.639Z,16.00
2018-08-20T03:04:14.540Z,16.00
2018-08-20T03:06:42.355Z,15.90
2018-08-20T03:09:14.620Z,15.90
2018-08-20T03:11:42.479Z,15.90
2018-08-20T03:14:10.838Z,15.90
2018-08-20T03:16:38.807Z,15.90
2018-08-20T03:19:07.316Z,15.90
2018-08-20T03:21:35.221Z,15.80
2018-08-20T03:24:03.212Z,15.80
2018-08-20T03:26:31.054Z,15.80
2018-08-20T03:28:59.483Z,15.70
2018-08-20T03:31:27.376Z,15.70
2018-08-20T03:33:55.197Z,15.70
2018-08-20T03:36:23.288Z,15.70
2018-08-20T03:41:23.247Z,15.60
2018-08-20T03:43:51.219Z,15.60
2018-08-20T03:46:19.218Z,15.50
2018-08-20T03:48:47.251Z,15.50
2018-08-20T03:51:15.120Z,15.50
2018-08-20T03:53:42.944Z,15.50
2018-08-20T03:56:10.744Z,15.50
2018-08-20T03:58:38.526Z,15.40
2018-08-20T04:01:06.396Z,15.40
2018-08-20T04:03:34.284Z,15.40
2018-08-20T04:06:02.114Z,15.30
2018-08-20T04:08:29.891Z,15.30
2018-08-20T04:10:57.682Z,15.30
2018-08-20T04:13:25.524Z,15.30
2018-08-20T04:15:53.312Z,15.20
2018-08-20T04:18:21.108Z,15.20
2018-08-20T04:20:48.908Z,15.20
2018-08-20T04:23:16.692Z,15.20
2018-08-20T04:25:44.499Z,15.10
2018-08-20T04:28:12.289Z,15.30
2018-08-20T04:30:40.121Z,15.30
2018-08-20T04:33:08.127Z,15.30
2018-08-20T04:35:35.911Z,15.20
2018-08-20T04:38:03.667Z,15.20
2018-08-20T04:40:31.538Z,15.20
2018-08-20T04:42:59.266Z,15.10
2018-08-20T04:45:27.075Z,15.20
2018-08-20T04:47:54.902Z,15.20
2018-08-20T04:50:22.899Z,15.30
2018-08-20T04:52:50.564Z,15.30
2018-08-20T04:55:18.362Z,15.30
2018-08-20T04:57:46.171Z,15.30
2018-08-20T05:00:14.804Z,15.30
2018-08-20T05:02:42.709Z,15.40
2018-08-20T05:05:10.591Z,15.40
2018-08-20T05:07:38.444Z,15.50
2018-08-20T05:10:06.846Z,15.50
2018-08-20T05:12:34.648Z,15.50
2018-08-20T05:15:02.482Z,15.60
2018-08-20T05:17:30.288Z,15.60
2018-08-20T05:19:58.084Z,15.70
2018-08-20T05:22:28.733Z,15.70
2018-08-20T05:24:56.638Z,15.70
2018-08-20T05:27:24.603Z,15.80
2018-08-20T05:29:56.445Z,15.90
2018-08-20T05:32:24.520Z,15.90
2018-08-20T05:34:52.372Z,16.00
2018-08-20T05:37:20.171Z,16.10
2018-08-20T05:39:48.024Z,16.20
2018-08-20T05:42:15.839Z,16.30
2018-08-20T05:44:43.672Z,16.30
2018-08-20T05:47:11.619Z,16.40
2018-08-20T05:49:39.455Z,16.50
2018-08-20T05:52:07.316Z,16.80
2018-08-20T05:54:35.062Z,16.90
2018-08-20T05:57:02.851Z,17.10
2018-08-20T05:59:30.621Z,17.30
2018-08-20T06:01:58.511Z,17.60
2018-08-20T06:04:26.289Z,17.90
2018-08-20T06:06:54.000Z,18.00
2018-08-20T06:09:21.804Z,18.20
2018-08-20T06:11:49.709Z,18.40
2018-08-20T06:14:17.543Z,18.80
2018-08-20T06:16:45.346Z,18.80
2018-08-20T06:19:13.222Z,18.90
2018-08-20T06:21:41.058Z,18.90
2018-08-20T06:24:08.848Z,19.00
2018-08-20T06:26:36.663Z,19.20
2018-08-20T06:29:04.695Z,19.30
2018-08-20T06:31:32.590Z,19.40
2018-08-20T06:34:00.453Z,19.60
2018-08-20T06:36:28.274Z,20.00
2018-08-20T06:38:56.043Z,20.40
2018-08-20T06:41:23.868Z,20.80
2018-08-20T06:43:51.705Z,21.00
2018-08-20T06:46:19.604Z,21.20
2018-08-20T06:48:47.479Z,21.40
2018-08-20T06:51:15.290Z,21.50
2018-08-20T06:53:43.273Z,21.70
2018-08-20T06:56:11.107Z,21.90
2018-08-20T06:58:39.023Z,22.20
2018-08-20T07:01:07.099Z,22.20
2018-08-20T07:03:34.903Z,22.40
2018-08-20T07:06:02.878Z,22.60
2018-08-20T07:08:30.715Z,22.80
2018-08-20T07:10:58.509Z,23.00
2018-08-20T07:13:32.471Z,23.20
2018-08-20T07:16:00.356Z,23.30
2018-08-20T07:18:29.253Z,23.70
2018-08-20T07:20:57.143Z,23.90
2018-08-20T07:23:25.274Z,23.70
2018-08-20T07:25:53.231Z,23.80
2018-08-20T07:28:21.064Z,23.80
2018-08-20T07:30:49.347Z,24.10
2018-08-20T07:33:17.532Z,24.30
2018-08-20T07:35:45.579Z,24.60
2018-08-20T07:38:14.016Z,24.70
2018-08-20T07:40:42.795Z,25.00
2018-08-20T07:43:10.708Z,25.10
2018-08-20T07:45:38.572Z,25.20
2018-08-20T07:48:06.738Z,25.30
2018-08-20T07:50:34.584Z,24.90
2018-08-20T07:53:02.517Z,25.60
2018-08-20T07:55:30.460Z,25.50
2018-08-20T07:57:58.307Z,25.80
2018-08-20T08:00:26.211Z,25.90
2018-08-20T08:02:54.058Z,26.20
2018-08-20T08:05:21.959Z,26.10
2018-08-20T08:07:49.804Z,25.90
2018-08-20T08:10:17.619Z,26.00
2018-08-20T08:12:45.587Z,25.70
2018-08-20T08:15:14.175Z,25.90
2018-08-20T08:17:43.311Z,26.50
2018-08-20T08:20:12.336Z,26.80
2018-08-20T08:22:40.846Z,26.50
2018-08-20T08:25:08.984Z,26.50
2018-08-20T08:27:37.051Z,26.80
2018-08-20T08:30:09.875Z,26.90
2018-08-20T08:32:37.768Z,27.30
2018-08-20T08:35:06.299Z,27.00
2018-08-20T08:37:34.167Z,27.00
2018-08-20T08:40:01.953Z,27.30
2018-08-20T08:42:29.724Z,27.40
2018-08-20T08:44:57.591Z,26.90
2018-08-20T08:47:25.507Z,27.10
2018-08-20T08:49:53.384Z,26.90
2018-08-20T08:52:21.147Z,26.60
2018-08-20T08:54:49.032Z,26.80
2018-08-20T08:57:16.915Z,26.70
2018-08-20T08:59:44.795Z,26.80
2018-08-20T09:02:12.571Z,27.00
2018-08-20T09:04:40.324Z,27.00
2018-08-20T09:07:08.184Z,27.40
2018-08-20T09:09:36.036Z,27.60
2018-08-20T09:12:03.868Z,27.60
2018-08-20T09:14:31.720Z,28.10
2018-08-20T09:16:59.569Z,28.10
2018-08-20T09:19:27.385Z,28.40
2018-08-20T09:21:55.160Z,28.30
2018-08-20T09:24:23.004Z,28.00
2018-08-20T09:26:50.819Z,28.50
2018-08-20T09:29:18.667Z,28.40
2018-08-20T09:31:46.440Z,28.70
2018-08-20T09:34:14.244Z,28.90
2018-08-20T09:36:42.051Z,28.80
2018-08-20T09:39:09.853Z,28.50
2018-08-20T09:41:37.659Z,28.70
2018-08-20T09:44:05.613Z,28.70
2018-08-20T09:46:33.459Z,28.60
2018-08-20T09:49:01.200Z,28.80
2018-08-20T09:51:29.207Z,28.90
2018-08-20T09:53:56.984Z,29.20
2018-08-20T09:56:24.847Z,29.40
2018-08-20T09:58:52.691Z,30.00
2018-08-20T10:01:20.492Z,30.10
2018-08-20T10:03:48.312Z,29.60
2018-08-20T10:06:16.139Z,29.20
2018-08-20T10:08:44.153Z,28.60
2018-08-20T10:11:12.739Z,28.30
2018-08-20T10:13:40.508Z,28.80
2018-08-20T10:16:08.750Z,29.10
2018-08-20T10:18:37.110Z,29.40
2018-08-20T10:21:05.231Z,28.90
2018-08-20T10:23:33.079Z,28.90
2018-08-20T10:26:01.052Z,28.80
2018-08-20T10:28:28.879Z,28.90
2018-08-20T10:30:56.753Z,29.10
2018-08-20T10:33:24.564Z,29.00
2018-08-20T10:35:53.280Z,29.00
2018-08-20T10:38:21.088Z,29.20
2018-08-20T10:40:49.870Z,29.10
2018-08-20T10:43:17.664Z,28.60
2018-08-20T10:45:51.343Z,28.40
2018-08-20T10:48:19.195Z,28.60
2018-08-20T10:50:47.020Z,28.70
2018-08-20T10:53:14.807Z,28.30
2018-08-20T10:55:42.631Z,28.60
2018-08-20T10:58:10.495Z,29.00
2018-08-20T11:00:38.797Z,29.50
2018-08-20T11:03:06.599Z,29.70
2018-08-20T11:05:38.809Z,30.00
2018-08-20T11:08:06.717Z,29.70
2018-08-20T11:10:34.536Z,29.90
2018-08-20T11:13:02.444Z,30.40
2018-08-20T11:15:30.283Z,30.30
2018-08-20T11:17:58.101Z,30.20
2018-08-20T11:20:27.146Z,30.30
2018-08-20T11:22:54.959Z,30.10
2018-08-20T11:25:22.743Z,29.90
2018-08-20T11:27:50.575Z,29.50
2018-08-20T11:30:19.224Z,29.50
2018-08-20T11:32:46.983Z,29.60
2018-08-20T11:35:14.775Z,29.60
2018-08-20T11:37:42.556Z,29.90
2018-08-20T11:40:10.367Z,30.10
2018-08-20T11:42:38.403Z,30.00
2018-08-20T11:45:10.343Z,29.80
2018-08-20T11:47:38.443Z,30.00
2018-08-20T11:50:06.491Z,30.20
2018-08-20T11:52:34.880Z,29.80
2018-08-20T11:55:02.726Z,30.10
2018-08-20T11:57:30.535Z,29.80
2018-08-20T11:59:58.347Z,29.50
2018-08-20T12:02:26.156Z,30.20
2018-08-20T12:04:53.932Z,30.20
2018-08-20T12:07:21.716Z,30.30
2018-08-20T12:09:49.552Z,30.30
2018-08-20T12:12:17.683Z,30.60
2018-08-20T12:14:45.441Z,30.90
2018-08-20T12:17:13.311Z,30.90
2018-08-20T12:19:41.576Z,32.40
2018-08-20T12:22:09.420Z,33.30
2018-08-20T12:24:37.155Z,33.20
2018-08-20T12:27:04.996Z,32.90
2018-08-20T12:29:32.738Z,32.40
2018-08-20T12:32:00.535Z,32.70
2018-08-20T12:34:28.404Z,32.80
2018-08-20T12:36:56.252Z,32.30
2018-08-20T12:39:24.127Z,32.10
2018-08-20T12:41:51.951Z,32.60
2018-08-20T12:44:19.658Z,32.50
2018-08-20T12:46:47.505Z,32.50
2018-08-20T12:49:15.332Z,32.10
2018-08-20T12:51:43.188Z,32.00
2018-08-20T12:54:10.969Z,32.50
2018-08-20T12:56:38.764Z,32.20
2018-08-20T12:59:07.875Z,32.60
2018-08-20T13:01:35.777Z,32.20
2018-08-20T13:04:04.132Z,31.70
2018-08-20T13:06:32.019Z,31.90
2018-08-20T13:08:59.891Z,32.50
2018-08-20T13:11:27.643Z,32.20
2018-08-20T13:13:55.497Z,32.10
2018-08-20T13:16:23.434Z,31.80
2018-08-20T13:18:51.190Z,31.20
2018-08-20T13:21:18.961Z,31.60
2018-08-20T13:23:46.763Z,31.40
2018-08-20T13:26:14.507Z,31.40
2018-08-20T13:28:42.355Z,31.40
2018-08-20T13:31:10.418Z,31.30
2018-08-20T13:33:38.383Z,31.50
2018-08-20T13:36:06.263Z,31.30
2018-08-20T13:38:34.083Z,31.10
2018-08-20T13:41:02.783Z,31.00
2018-08-20T13:43:30.723Z,31.20
2018-08-20T13:45:58.956Z,31.10
2018-08-20T13:48:26.867Z,31.80
2018-08-20T13:50:54.997Z,31.80
2018-08-20T13:53:22.892Z,31.90
2018-08-20T13:55:50.663Z,32.20
2018-08-20T13:58:18.539Z,32.00
2018-08-20T14:00:46.372Z,32.30
2018-08-20T14:03:14.330Z,32.20
2018-08-20T14:05:42.104Z,31.80
2018-08-20T14:08:10.047Z,32.10
2018-08-20T14:10:37.808Z,31.80
2018-08-20T14:13:05.898Z,31.70
2018-08-20T14:15:33.704Z,31.70
2018-08-20T14:18:01.489Z,31.70
2018-08-20T14:20:29.279Z,31.50
2018-08-20T14:22:57.036Z,31.30
2018-08-20T14:25:24.844Z,31.30
2018-08-20T14:27:52.657Z,31.60
2018-08-20T14:30:20.416Z,31.50
2018-08-20T14:32:48.224Z,31.20
2018-08-20T14:35:16.056Z,31.50
2018-08-20T14:37:43.915Z,31.60
2018-08-20T14:40:14.841Z,31.60
2018-08-20T14:42:43.122Z,30.80
2018-08-20T14:45:12.937Z,31.40
2018-08-20T14:47:41.674Z,30.90
2018-08-20T14:50:15.760Z,31.30
2018-08-20T14:52:43.592Z,31.40
2018-08-20T14:55:11.858Z,30.40
2018-08-20T14:57:39.715Z,30.60
2018-08-20T15:00:10.848Z,30.20
2018-08-20T15:02:38.712Z,30.70
2018-08-20T15:05:06.927Z,31.00
2018-08-20T15:07:36.226Z,30.80
2018-08-20T15:10:05.669Z,30.70
2018-08-20T15:12:33.493Z,30.60
2018-08-20T15:15:01.405Z,30.40
2018-08-20T15:17:29.139Z,30.30
2018-08-20T15:19:56.946Z,30.00
2018-08-20T15:22:24.824Z,30.00
2018-08-20T15:24:52.676Z,30.20
2018-08-20T15:27:20.484Z,30.10
2018-08-20T15:29:48.299Z,30.20
2018-08-20T15:32:16.272Z,29.90
2018-08-20T15:34:44.017Z,30.20
2018-08-20T15:37:12.467Z,29.80
2018-08-20T15:39:40.653Z,29.80
2018-08-20T15:42:08.328Z,29.70
2018-08-20T15:44:36.190Z,29.90
2018-08-20T15:47:04.013Z,29.80
2018-08-20T15:49:31.807Z,29.40
2018-08-20T15:51:59.596Z,29.60
2018-08-20T15:54:27.379Z,29.50
2018-08-20T15:57:03.264Z,29.60
2018-08-20T15:59:40.912Z,29.30
2018-08-20T16:02:11.806Z,29.60
2018-08-20T16:04:39.588Z,29.60
2018-08-20T16:07:07.432Z,29.40
2018-08-20T16:09:35.287Z,29.50
2018-08-20T16:12:03.176Z,29.50
2018-08-20T16:14:30.947Z,29.30
2018-08-20T16:16:58.703Z,28.90
2018-08-20T16:19:26.636Z,29.20
2018-08-20T16:21:54.472Z,29.20
2018-08-20T16:24:22.325Z,29.20
2018-08-20T16:26:50.289Z,28.80
2018-08-20T16:29:17.891Z,28.90
2018-08-20T16:31:45.788Z,29.00
2018-08-20T16:34:13.615Z,28.90
2018-08-20T16:36:41.392Z,28.90
2018-08-20T16:39:11.458Z,28.50
2018-08-20T16:41:39.505Z,28.60
2018-08-20T16:44:08.450Z,28.60
2018-08-20T16:46:36.395Z,28.50
2018-08-20T16:49:04.405Z,28.40
2018-08-20T16:51:32.251Z,28.20
2018-08-20T16:54:00.032Z,28.10
2018-08-20T16:56:27.828Z,28.20
2018-08-20T16:58:55.663Z,28.20
2018-08-20T17:01:23.549Z,28.10
2018-08-20T17:03:51.340Z,28.00
2018-08-20T17:06:19.167Z,27.90
2018-08-20T17:08:46.983Z,28.00
2018-08-20T17:11:14.812Z,28.00
2018-08-20T17:13:42.630Z,28.00
2018-08-20T17:16:14.002Z,27.90
2018-08-20T17:18:41.991Z,27.70
2018-08-20T17:21:09.932Z,27.70
2018-08-20T17:23:37.795Z,27.50
2018-08-20T17:26:06.423Z,27.50
2018-08-20T17:28:34.163Z,27.20
2018-08-20T17:31:04.849Z,27.20
2018-08-20T17:33:34.259Z,27.20
2018-08-20T17:36:02.139Z,27.20
2018-08-20T17:38:30.129Z,27.10
2018-08-20T17:40:57.951Z,27.00
2018-08-20T17:43:25.759Z,26.90
2018-08-20T17:45:55.843Z,26.80
2018-08-20T17:48:32.951Z,26.80
2018-08-20T17:51:00.928Z,26.80
2018-08-20T17:53:45.981Z,26.60
2018-08-20T17:56:13.793Z,26.50
2018-08-20T17:58:41.607Z,26.30
2018-08-20T18:01:09.420Z,26.20
2018-08-20T18:03:37.234Z,26.10
2018-08-20T18:06:07.313Z,26.00
2018-08-20T18:08:35.319Z,26.00
2018-08-20T18:11:03.760Z,25.70
2018-08-20T18:13:41.253Z,25.70
2018-08-20T18:16:10.351Z,25.70
2018-08-20T18:18:39.131Z,25.50
2018-08-20T18:21:06.951Z,25.30
2018-08-20T18:23:35.404Z,25.20
2018-08-20T18:26:03.291Z,25.20
2018-08-20T18:28:40.091Z,25.00
2018-08-20T18:31:10.967Z,24.70
2018-08-20T18:33:40.372Z,24.60
2018-08-20T18:36:15.209Z,24.50
2018-08-20T18:38:49.200Z,24.30
2018-08-20T18:41:19.220Z,24.20
2018-08-20T18:43:52.348Z,24.10
2018-08-20T18:46:20.255Z,23.90
2018-08-20T18:48:48.011Z,23.90
2018-08-20T18:51:16.343Z,23.80
2018-08-20T18:53:44.151Z,23.60
2018-08-20T18:56:15.497Z,23.50
2018-08-20T18:58:44.819Z,23.40
2018-08-20T19:01:13.081Z,23.30
2018-08-20T19:03:46.143Z,23.10
2018-08-20T19:06:14.706Z,23.10
2018-08-20T19:08:42.731Z,23.00
2018-08-20T19:11:11.831Z,23.00
2018-08-20T19:13:40.207Z,22.90
2018-08-20T19:16:27.956Z,22.80
2018-08-20T19:18:56.121Z,22.80
2018-08-20T19:21:28.620Z,22.70
2018-08-20T19:23:58.440Z,22.70
2018-08-20T19:26:38.463Z,22.60
2018-08-20T19:29:32.476Z,22.60
2018-08-20T19:32:01.768Z,22.60
2018-08-20T19:34:29.848Z,22.60
2018-08-20T19:36:57.779Z,22.60
2018-08-20T19:39:25.731Z,22.60
2018-08-20T19:41:53.744Z,22.60
2018-08-20T19:44:21.563Z,22.60
2018-08-20T19:46:49.995Z,22.60
2018-08-20T19:49:17.864Z,22.60
2018-08-20T19:51:45.745Z,22.60
2018-08-20T19:54:15.117Z,22.60
2018-08-20T19:56:42.973Z,22.60
2018-08-20T19:59:12.191Z,22.60
2018-08-20T20:01:40.595Z,22.60
2018-08-20T20:04:14.203Z,22.60
2018-08-20T20:06:42.952Z,22.60
2018-08-20T20:09:11.614Z,22.50
2018-08-20T20:11:42.087Z,22.50
2018-08-20T20:14:09.995Z,22.50
2018-08-20T20:16:43.492Z,22.60
2018-08-20T20:19:11.559Z,22.60
2018-08-20T20:21:39.449Z,22.50
2018-08-20T20:24:08.031Z,22.60
2018-08-20T20:26:35.866Z,22.50
2018-08-20T20:29:04.938Z,22.50
2018-08-20T20:31:32.871Z,22.50
2018-08-20T20:34:00.843Z,22.50
2018-08-20T20:36:29.878Z,22.50
2018-08-20T20:38:57.840Z,22.50
2018-08-20T20:41:25.748Z,22.50
2018-08-20T20:43:54.042Z,22.50
2018-08-20T20:46:22.025Z,22.40
2018-08-20T20:48:50.480Z,22.40
2018-08-20T20:51:18.424Z,22.40
2018-08-20T20:53:46.567Z,22.50
2018-08-20T20:56:14.463Z,22.40
2018-08-20T20:58:42.311Z,22.40
2018-08-20T21:01:11.491Z,22.40
2018-08-20T21:04:00.692Z,22.30
2018-08-20T21:06:29.276Z,22.30
2018-08-20T21:08:59.275Z,22.40
2018-08-20T21:11:27.223Z,22.30
2018-08-20T21:13:55.023Z,22.30
2018-08-20T21:16:24.288Z,22.30
2018-08-20T21:18:54.347Z,22.20
2018-08-20T21:21:22.630Z,22.20
2018-08-20T21:23:50.516Z,22.20
2018-08-20T21:26:18.544Z,22.20
2018-08-20T21:28:51.225Z,22.10
2018-08-20T21:31:20.477Z,22.10
2018-08-20T21:33:54.395Z,22.10
2018-08-20T21:36:22.380Z,22.20
2018-08-20T21:38:50.319Z,22.20
2018-08-20T21:41:24.232Z,22.20
2018-08-20T21:43:52.447Z,22.10
2018-08-20T21:46:20.395Z,22.20
2018-08-20T21:48:48.305Z,22.10
2018-08-20T21:51:21.897Z,22.10
2018-08-20T21:53:49.619Z,22.10
2018-08-20T21:56:17.358Z,22.10
2018-08-20T21:58:45.251Z,22.00
2018-08-20T22:01:17.835Z,22.00
2018-08-20T22:03:50.139Z,22.00
2018-08-20T22:06:21.176Z,22.00
2018-08-20T22:08:56.322Z,22.00
2018-08-20T22:11:24.471Z,22.00
2018-08-20T22:13:52.228Z,21.90
2018-08-20T22:16:21.472Z,21.90
2018-08-20T22:18:55.900Z,21.90
2018-08-20T22:21:23.998Z,21.90
2018-08-20T22:23:58.906Z,21.90
2018-08-20T22:26:26.990Z,21.90
2018-08-20T22:28:54.835Z,21.90
2018-08-20T22:31:22.655Z,21.80
2018-08-20T22:33:58.176Z,21.80
2018-08-20T22:36:27.067Z,21.70
2018-08-20T22:38:56.124Z,21.70
2018-08-20T22:41:25.054Z,21.80
2018-08-20T22:43:52.864Z,21.80
2018-08-20T22:46:21.618Z,21.80
2018-08-20T22:48:51.243Z,21.70
2018-08-20T22:51:19.730Z,21.70
2018-08-20T22:53:50.491Z,21.70
2018-08-20T22:56:34.920Z,21.70
2018-08-20T22:59:10.247Z,21.70
2018-08-20T23:01:38.162Z,21.70
2018-08-20T23:04:06.383Z,21.60
2018-08-20T23:06:34.231Z,21.50
2018-08-20T23:09:24.464Z,21.50
2018-08-20T23:11:52.962Z,21.50
2018-08-20T23:14:20.783Z,21.50
2018-08-20T23:16:49.922Z,21.50
2018-08-20T23:19:18.190Z,21.40
2018-08-20T23:21:46.871Z,21.40
2018-08-20T23:24:15.489Z,21.40
2018-08-20T23:26:43.387Z,21.40
2018-08-20T23:29:11.423Z,21.40
2018-08-20T23:31:39.711Z,21.40
2018-08-20T23:34:09.400Z,21.40
2018-08-20T23:36:37.480Z,21.40
2018-08-20T23:39:09.234Z,21.40
2018-08-20T23:41:37.322Z,21.40
2018-08-20T23:44:05.099Z,21.30
2018-08-20T23:46:42.328Z,21.30
2018-08-20T23:49:10.157Z,21.20
2018-08-20T23:51:37.987Z,21.20
2018-08-20T23:54:05.847Z,21.20
2018-08-20T23:56:33.664Z,21.20
2018-08-20T23:59:01.531Z,21.20
